Time;durP1;ratioP1;P1;durP2;ratioP2;P2;SDS_P1;SDS_P2;PMS_P1;PMS_P2;Temp;Humidity;BMP_temperature;BMP_pressure;BME280_temperature;BME280_humidity;BME280_pressure;Samples;Min_cycle;Max_cycle;Signal;HPM_P1;HPM_P2
2023/11/01 00:00:51;;;;;;;;;;;;;;;;;;5060985;28;20003;-67
2023/11/01 00:03:17;;;;;;;;;;;;;;;;;;5063270;28;19955;-67
2023/11/01 00:05:42;;;;;;;;;;;;;;;;;;5062597;28;20368;-67
2023/11/01 00:08:08;;;;;;;;;;;;;;;;;;5065768;28;19920;-67
2023/11/01 00:10:34;;;;;;;;;;;;;;;;;;5069857;28;20006;-67
2023/11/01 00:13:00;;;;;;;;;;;;;;;;;;5072391;28;19912;-67
2023/11/01 00:15:26;;;;;;;;;;;;;;;;;;5075930;28;19958;-67
2023/11/01 00:17:53;;;;;;;;;;;;;;;;;;5074123;28;20364;-67
2023/11/01 00:20:19;;;;;;;;;;;;;;;;;;5072143;28;20293;-67
2023/11/01 00:22:45;;;;;;;;;;;;;;;;;;5075030;28;19974;-67
2023/11/01 00:25:11;;;;;;;;;;;;;;;;;;5074394;28;20400;-67
2023/11/01 00:27:37;;;;;;;;;;;;;;;;;;5075146;28;19947;-67
2023/11/01 00:30:03;;;;;;;;;;;;;;;;;;5079495;28;19917;-67
2023/11/01 00:32:29;;;;;;;;;;;;;;;;;;5074727;28;20014;-67
2023/11/01 00:34:55;;;;;;;;;;;;;;;;;;5069821;28;20476;-67
2023/11/01 00:37:21;;;;;;;;;;;;;;;;;;5069919;28;20015;-67
2023/11/01 00:39:47;;;;;;;;;;;;;;;;;;5072450;28;19913;-67
2023/11/01 00:42:13;;;;;;;;;;;;;;;;;;5071442;28;19944;-67
2023/11/01 00:44:38;;;;;;;;;;;;;;;;;;5075168;28;19913;-67
2023/11/01 00:47:04;;;;;;;;;;;;;;;;;;5075336;28;19973;-67
2023/11/01 00:49:30;;;;;;;;;;;;;;;;;;5074891;28;20015;-67
2023/11/01 00:51:56;;;;;;;;;;;;;;;;;;5065649;28;20427;-67
2023/11/01 00:54:22;;;;;;;;;;;;;;;;;;5076056;28;19920;-66
2023/11/01 00:56:48;;;;;;;;;;;;;;;;;;5074416;28;19971;-67
2023/11/01 00:59:14;;;;;;;;;;;;;;;;;;5065105;28;19913;-67
2023/11/01 01:01:40;;;;;;;;;;;;;;;;;;5076940;28;19912;-67
2023/11/01 01:04:06;;;;;;;;;;;;;;;;;;5073300;28;19920;-67
2023/11/01 01:06:33;;;;;;;;;;;;;;;;;;5069070;28;19917;-67
2023/11/01 01:08:59;;;;;;;;;;;;;;;;;;5073053;28;19916;-67
2023/11/01 01:11:24;;;;;;;;;;;;;;;;;;5073246;28;19912;-67
2023/11/01 01:13:50;;;;;;;;;;;;;;;;;;5078496;28;19920;-67
2023/11/01 01:16:16;;;;;;;;;;;;;;;;;;5074038;28;20008;-67
2023/11/01 01:18:42;;;;;;;;;;;;;;;;;;5074011;28;19917;-67
2023/11/01 01:21:08;;;;;;;;;;;;;;;;;;5074247;28;20038;-67
2023/11/01 01:23:34;;;;;;;;;;;;;;;;;;5070612;28;19920;-67
2023/11/01 01:26:00;;;;;;;;;;;;;;;;;;5073018;28;20034;-67
2023/11/01 01:28:26;;;;;;;;;;;;;;;;;;5066021;28;20364;-67
2023/11/01 01:30:52;;;;;;;;;;;;;;;;;;5074120;28;20268;-67
2023/11/01 01:33:17;;;;;;;;;;;;;;;;;;5070453;28;19995;-67
2023/11/01 01:35:43;;;;;;;;;;;;;;;;;;5071565;28;19918;-67
2023/11/01 01:38:09;;;;;;;;;;;;;;;;;;5073371;28;19912;-66
2023/11/01 01:40:35;;;;;;;;;;;;;;;;;;5069754;28;19948;-67
2023/11/01 01:43:01;;;;;;;;;;;;;;;;;;5049015;28;19955;-67
2023/11/01 01:45:27;;;;;;;;;;;;;;;;;;5072132;28;19913;-67
2023/11/01 01:47:53;;;;;;;;;;;;;;;;;;5073218;28;19938;-67
2023/11/01 01:50:19;;;;;;;;;;;;;;;;;;5073699;28;19913;-67
2023/11/01 01:52:45;;;;;;;;;;;;;;;;;;5074023;28;19952;-64
2023/11/01 01:55:11;;;;;;;;;;;;;;;;;;5078914;28;20019;-63
2023/11/01 01:57:36;;;;;;;;;;;;;;;;;;5073478;28;20364;-64
2023/11/01 02:00:02;;;;;;;;;;;;;;;;;;5070134;28;20007;-64
2023/11/01 02:02:28;;;;;;;;;;;;;;;;;;5068426;28;19962;-64
2023/11/01 02:04:54;;;;;;;;;;;;;;;;;;5071608;28;19963;-63
2023/11/01 02:07:20;;;;;;;;;;;;;;;;;;5071654;28;19952;-64
2023/11/01 02:09:46;;;;;;;;;;;;;;;;;;5077872;28;19927;-66
2023/11/01 02:12:12;;;;;;;;;;;;;;;;;;5071401;28;19916;-63
2023/11/01 02:14:38;;;;;;;;;;;;;;;;;;5067478;28;20399;-63
2023/11/01 02:17:06;;;;;;;;;;;;;;;;;;5073199;28;19912;-63
2023/11/01 02:19:32;;;;;;;;;;;;;;;;;;5073376;28;20281;-63
2023/11/01 02:21:58;;;;;;;;;;;;;;;;;;5073194;28;19999;-64
2023/11/01 02:24:24;;;;;;;;;;;;;;;;;;5072660;28;19960;-63
2023/11/01 02:26:50;;;;;;;;;;;;;;;;;;5070991;28;19956;-64
2023/11/01 02:29:16;;;;;;;;;;;;;;;;;;5066438;28;19927;-64
2023/11/01 02:31:41;;;;;;;;;;;;;;;;;;5068581;28;19920;-63
2023/11/01 02:34:08;;;;;;;;;;;;;;;;;;5072138;28;20377;-63
2023/11/01 02:36:34;;;;;;;;;;;;;;;;;;5072744;28;19917;-63
2023/11/01 02:39:00;;;;;;;;;;;;;;;;;;5079183;28;19912;-64
2023/11/01 02:41:26;;;;;;;;;;;;;;;;;;5072538;28;19912;-63
2023/11/01 02:43:52;;;;;;;;;;;;;;;;;;5070646;28;19968;-64
2023/11/01 02:46:18;;;;;;;;;;;;;;;;;;5060402;28;19913;-64
2023/11/01 02:48:44;;;;;;;;;;;;;;;;;;5068258;28;19961;-63
2023/11/01 02:51:10;;;;;;;;;;;;;;;;;;5068408;28;19947;-63
2023/11/01 02:53:36;;;;;;;;;;;;;;;;;;5072231;28;19912;-63
2023/11/01 02:56:02;;;;;;;;;;;;;;;;;;5065605;28;20378;-64
2023/11/01 02:58:29;;;;;;;;;;;;;;;;;;5064500;28;19970;-64
2023/11/01 03:00:55;;;;;;;;;;;;;;;;;;5068555;28;19912;-64
2023/11/01 03:03:21;;;;;;;;;;;;;;;;;;5074262;28;20773;-64
2023/11/01 03:05:47;;;;;;;;;;;;;;;;;;5072768;28;19917;-63
2023/11/01 03:08:14;;;;;;;;;;;;;;;;;;5070618;28;19971;-65
2023/11/01 03:10:40;;;;;;;;;;;;;;;;;;5070980;28;19912;-64
2023/11/01 03:13:06;;;;;;;;;;;;;;;;;;5060649;28;19919;-68
2023/11/01 03:15:31;;;;;;;;;;;;;;;;;;5071283;28;19916;-68
2023/11/01 03:17:57;;;;;;;;;;;;;;;;;;5066523;28;20430;-68
2023/11/01 03:20:23;;;;;;;;;;;;;;;;;;5066289;28;19912;-68
2023/11/01 03:22:49;;;;;;;;;;;;;;;;;;5068301;28;20279;-68
2023/11/01 03:25:15;;;;;;;;;;;;;;;;;;5068960;28;19936;-68
2023/11/01 03:27:41;;;;;;;;;;;;;;;;;;5070224;28;19965;-68
2023/11/01 03:30:07;;;;;;;;;;;;;;;;;;5071503;28;20007;-68
2023/11/01 03:32:33;;;;;;;;;;;;;;;;;;5071137;28;19930;-68
2023/11/01 03:34:59;;;;;;;;;;;;;;;;;;5071991;28;19920;-68
2023/11/01 03:37:25;;;;;;;;;;;;;;;;;;5069802;28;19958;-68
2023/11/01 03:39:50;;;;;;;;;;;;;;;;;;5071618;28;19913;-68
2023/11/01 03:42:16;;;;;;;;;;;;;;;;;;5069891;28;20011;-68
2023/11/01 03:44:42;;;;;;;;;;;;;;;;;;5071036;28;19920;-68
2023/11/01 03:47:08;;;;;;;;;;;;;;;;;;5060718;28;20011;-68
2023/11/01 03:49:34;;;;;;;;;;;;;;;;;;5064513;28;19990;-68
2023/11/01 03:52:01;;;;;;;;;;;;;;;;;;5070850;28;19963;-67
2023/11/01 03:54:27;;;;;;;;;;;;;;;;;;5063854;28;19913;-68
2023/11/01 03:56:53;;;;;;;;;;;;;;;;;;5069886;28;19934;-69
2023/11/01 03:59:18;;;;;;;;;;;;;;;;;;5061992;28;19995;-68
2023/11/01 04:01:44;;;;;;;;;;;;;;;;;;5068048;28;19919;-68
2023/11/01 04:04:10;;;;;;;;;;;;;;;;;;5071015;28;20388;-68
2023/11/01 04:06:37;;;;;;;;;;;;;;;;;;5071953;28;19950;-68
2023/11/01 04:09:03;;;;;;;;;;;;;;;;;;5070529;28;20360;-67
2023/11/01 04:11:30;;;;;;;;;;;;;;;;;;5071012;28;19923;-68
2023/11/01 04:13:56;;;;;;;;;;;;;;;;;;5068493;28;19913;-67
2023/11/01 04:16:22;;;;;;;;;;;;;;;;;;5068913;28;19920;-68
2023/11/01 04:18:48;;;;;;;;;;;;;;;;;;5070388;28;19969;-68
2023/11/01 04:21:14;;;;;;;;;;;;;;;;;;5070372;28;19981;-68
2023/11/01 04:23:40;;;;;;;;;;;;;;;;;;5068528;28;19913;-64
2023/11/01 04:26:06;;;;;;;;;;;;;;;;;;5065697;28;20426;-66
2023/11/01 04:28:32;;;;;;;;;;;;;;;;;;5069847;28;19924;-63
2023/11/01 04:30:59;;;;;;;;;;;;;;;;;;5071004;28;20015;-63
2023/11/01 04:33:24;;;;;;;;;;;;;;;;;;5073446;28;19913;-64
2023/11/01 04:35:53;;;;;;;;;;;;;;;;;;5071710;28;20399;-63
2023/11/01 04:38:19;;;;;;;;;;;;;;;;;;5070820;28;19920;-63
2023/11/01 04:40:45;;;;;;;;;;;;;;;;;;5069319;28;19912;-65
2023/11/01 04:43:11;;;;;;;;;;;;;;;;;;5069774;28;19913;-64
2023/11/01 04:45:37;;;;;;;;;;;;;;;;;;5078112;28;19912;-63
2023/11/01 04:48:03;;;;;;;;;;;;;;;;;;5071068;28;19912;-64
2023/11/01 04:50:29;;;;;;;;;;;;;;;;;;5069857;28;19979;-63
2023/11/01 04:52:55;;;;;;;;;;;;;;;;;;5069437;28;19955;-63
2023/11/01 04:55:21;;;;;;;;;;;;;;;;;;5077020;28;20007;-63
2023/11/01 04:57:47;;;;;;;;;;;;;;;;;;5063825;28;19916;-63
2023/11/01 05:00:15;;;;;;;;;;;;;;;;;;5069685;28;20330;-63
2023/11/01 05:02:41;;;;;;;;;;;;;;;;;;5069796;28;19970;-64
2023/11/01 05:05:08;;;;;;;;;;;;;;;;;;5071309;28;20648;-64
2023/11/01 05:07:34;;;;;;;;;;;;;;;;;;5072086;28;19943;-63
2023/11/01 05:10:00;;;;;;;;;;;;;;;;;;5066695;28;19970;-63
2023/11/01 05:12:26;;;;;;;;;;;;;;;;;;5067128;28;20000;-63
2023/11/01 05:14:52;;;;;;;;;;;;;;;;;;5069927;28;19959;-63
2023/11/01 05:17:18;;;;;;;;;;;;;;;;;;5071087;28;20368;-63
2023/11/01 05:19:43;;;;;;;;;;;;;;;;;;5070458;28;19956;-64
2023/11/01 05:22:10;;;;;;;;;;;;;;;;;;5071825;28;19999;-63
2023/11/01 05:24:35;;;;;;;;;;;;;;;;;;5076036;28;20025;-63
2023/11/01 05:27:01;;;;;;;;;;;;;;;;;;5084585;28;20067;-63
2023/11/01 05:29:27;;;;;;;;;;;;;;;;;;5076477;28;20391;-63
2023/11/01 05:31:54;;;;;;;;;;;;;;;;;;5095007;28;19908;-63
2023/11/01 05:34:21;;;;;;;;;;;;;;;;;;5074742;28;20324;-63
2023/11/01 05:36:47;;;;;;;;;;;;;;;;;;5079304;28;20003;-63
2023/11/01 05:39:13;;;;;;;;;;;;;;;;;;5079051;28;19972;-63
2023/11/01 05:41:39;;;;;;;;;;;;;;;;;;5062259;28;20296;-63
2023/11/01 05:44:05;;;;;;;;;;;;;;;;;;5076090;28;19951;-64
2023/11/01 05:46:31;;;;;;;;;;;;;;;;;;5073108;28;19917;-64
2023/11/01 05:48:56;;;;;;;;;;;;;;;;;;5073393;28;20007;-63
2023/11/01 05:51:22;;;;;;;;;;;;;;;;;;5060984;28;19923;-63
2023/11/01 05:53:48;;;;;;;;;;;;;;;;;;5071334;28;19912;-63
2023/11/01 05:56:15;;;;;;;;;;;;;;;;;;5066993;28;20340;-63
2023/11/01 05:58:41;;;;;;;;;;;;;;;;;;5081306;28;20092;-63
2023/11/01 06:01:07;;;;;;;;;;;;;;;;;;5072944;28;19966;-63
2023/11/01 06:03:32;;;;;;;;;;;;;;;;;;5081883;28;19916;-63
2023/11/01 06:05:58;;;;;;;;;;;;;;;;;;5078529;28;19970;-63
2023/11/01 06:08:24;;;;;;;;;;;;;;;;;;5084014;28;20372;-63
2023/11/01 06:10:51;;;;;;;;;;;;;;;;;;5077692;28;19999;-63
2023/11/01 06:13:18;;;;;;;;;;;;;;;;;;5077502;28;20249;-63
2023/11/01 06:15:44;;;;;;;;;;;;;;;;;;5073131;28;19927;-63
2023/11/01 06:18:09;;;;;;;;;;;;;;;;;;5067999;28;19921;-64
2023/11/01 06:20:35;;;;;;;;;;;;;;;;;;5070360;28;20025;-63
2023/11/01 06:23:04;;;;;;;;;;;;;;;;;;5076714;28;20006;-64
2023/11/01 06:25:30;;;;;;;;;;;;;;;;;;5075510;28;20348;-64
2023/11/01 06:27:56;;;;;;;;;;;;;;;;;;5073591;28;19921;-63
2023/11/01 06:30:22;;;;;;;;;;;;;;;;;;5079446;28;19920;-63
2023/11/01 06:32:48;;;;;;;;;;;;;;;;;;5078989;28;19916;-63
2023/11/01 06:35:14;;;;;;;;;;;;;;;;;;5070481;28;20028;-63
2023/11/01 06:37:40;;;;;;;;;;;;;;;;;;5081625;28;19912;-64
2023/11/01 06:40:06;;;;;;;;;;;;;;;;;;5076174;28;19913;-63
2023/11/01 06:42:31;;;;;;;;;;;;;;;;;;5073466;28;20407;-63
2023/11/01 06:44:57;;;;;;;;;;;;;;;;;;5075213;28;20057;-63
2023/11/01 06:47:23;;;;;;;;;;;;;;;;;;5053612;28;20024;-63
2023/11/01 06:49:49;;;;;;;;;;;;;;;;;;5074324;28;19916;-64
2023/11/01 06:52:15;;;;;;;;;;;;;;;;;;5079651;28;19934;-63
2023/11/01 06:54:43;;;;;;;;;;;;;;;;;;5073102;28;20011;-64
2023/11/01 06:57:10;;;;;;;;;;;;;;;;;;5069583;28;20295;-64
2023/11/01 06:59:36;;;;;;;;;;;;;;;;;;5075111;28;19955;-64
2023/11/01 07:02:02;;;;;;;;;;;;;;;;;;5074368;28;19959;-63
2023/11/01 07:04:28;;;;;;;;;;;;;;;;;;5067188;28;20386;-64
2023/11/01 07:06:54;;;;;;;;;;;;;;;;;;5068780;28;19924;-64
2023/11/01 07:09:19;;;;;;;;;;;;;;;;;;5074333;28;19930;-64
2023/11/01 07:11:45;;;;;;;;;;;;;;;;;;5071690;28;20389;-64
2023/11/01 07:14:11;;;;;;;;;;;;;;;;;;5076464;28;19967;-64
2023/11/01 07:16:41;;;;;;;;;;;;;;;;;;5074277;28;20354;-64
2023/11/01 07:19:07;;;;;;;;;;;;;;;;;;5076554;28;20284;-64
2023/11/01 07:21:33;;;;;;;;;;;;;;;;;;5074361;28;20011;-63
2023/11/01 07:23:58;;;;;;;;;;;;;;;;;;5075658;28;19915;-64
2023/11/01 07:26:24;;;;;;;;;;;;;;;;;;5072858;28;20292;-64
2023/11/01 07:28:51;;;;;;;;;;;;;;;;;;5068479;28;20417;-63
2023/11/01 07:31:17;;;;;;;;;;;;;;;;;;5078166;28;20288;-64
2023/11/01 07:33:43;;;;;;;;;;;;;;;;;;5078377;28;19916;-64
2023/11/01 07:36:09;;;;;;;;;;;;;;;;;;5070912;28;19912;-63
2023/11/01 07:38:35;;;;;;;;;;;;;;;;;;5069441;28;20018;-64
2023/11/01 07:41:01;;;;;;;;;;;;;;;;;;5067642;28;20398;-64
2023/11/01 07:43:27;;;;;;;;;;;;;;;;;;5069745;28;19955;-64
2023/11/01 07:45:53;;;;;;;;;;;;;;;;;;5071880;28;19998;-64
2023/11/01 07:48:18;;;;;;;;;;;;;;;;;;5071349;28;19927;-64
2023/11/01 07:50:44;;;;;;;;;;;;;;;;;;5078639;28;19912;-64
2023/11/01 07:53:10;;;;;;;;;;;;;;;;;;5073448;28;19967;-67
2023/11/01 07:55:36;;;;;;;;;;;;;;;;;;5067754;28;20413;-66
2023/11/01 07:58:02;;;;;;;;;;;;;;;;;;5073271;28;19916;-66
2023/11/01 08:00:28;;;;;;;;;;;;;;;;;;5070699;28;19970;-67
2023/11/01 08:02:54;;;;;;;;;;;;;;;;;;5071690;28;19971;-66
2023/11/01 08:05:20;;;;;;;;;;;;;;;;;;5068275;28;20139;-66
2023/11/01 08:07:46;;;;;;;;;;;;;;;;;;5064812;28;19925;-66
2023/11/01 08:10:12;;;;;;;;;;;;;;;;;;5065470;28;19952;-66
2023/11/01 08:12:38;;;;;;;;;;;;;;;;;;5063749;28;19960;-67
2023/11/01 08:15:04;;;;;;;;;;;;;;;;;;5066004;28;19970;-66
2023/11/01 08:17:30;;;;;;;;;;;;;;;;;;5063997;28;19912;-66
2023/11/01 08:19:55;;;;;;;;;;;;;;;;;;5080386;28;20383;-66
2023/11/01 08:22:21;;;;;;;;;;;;;;;;;;5072664;28;19958;-67
2023/11/01 08:24:47;;;;;;;;;;;;;;;;;;5080895;28;20321;-67
2023/11/01 08:27:13;;;;;;;;;;;;;;;;;;5073007;28;20016;-67
2023/11/01 08:29:42;;;;;;;;;;;;;;;;;;5080880;28;19967;-67
2023/11/01 08:32:08;;;;;;;;;;;;;;;;;;5074887;28;20388;-67
2023/11/01 08:34:34;;;;;;;;;;;;;;;;;;5078445;28;20398;-66
2023/11/01 08:37:00;;;;;;;;;;;;;;;;;;5074139;28;19944;-67
2023/11/01 08:39:26;;;;;;;;;;;;;;;;;;5071138;28;19919;-66
2023/11/01 08:41:52;;;;;;;;;;;;;;;;;;5079788;28;20022;-67
2023/11/01 08:44:18;;;;;;;;;;;;;;;;;;5078483;28;19921;-67
2023/11/01 08:46:44;;;;;;;;;;;;;;;;;;5076553;28;20005;-67
2023/11/01 08:49:11;;;;;;;;;;;;;;;;;;5072682;28;19955;-67
2023/11/01 08:51:38;;;;;;;;;;;;;;;;;;5073880;28;19923;-67
2023/11/01 08:54:04;;;;;;;;;;;;;;;;;;5074270;28;19916;-66
2023/11/01 08:56:30;;;;;;;;;;;;;;;;;;5066525;28;20335;-67
2023/11/01 08:58:56;;;;;;;;;;;;;;;;;;5073917;28;19948;-67
2023/11/01 09:01:24;;;;;;;;;;;;;;;;;;5073515;28;20314;-67
2023/11/01 09:03:50;;;;;;;;;;;;;;;;;;5072888;28;20012;-67
2023/11/01 09:06:16;;;;;;;;;;;;;;;;;;5069171;28;20007;-67
2023/11/01 09:08:42;;;;;;;;;;;;;;;;;;5066652;28;20387;-67
2023/11/01 09:11:08;;;;;;;;;;;;;;;;;;5063015;28;19920;-67
2023/11/01 09:13:34;;;;;;;;;;;;;;;;;;5071001;28;19955;-66
2023/11/01 09:16:00;;;;;;;;;;;;;;;;;;5068112;28;20007;-67
2023/11/01 09:18:26;;;;;;;;;;;;;;;;;;5073009;28;19967;-67
2023/11/01 09:20:52;;;;;;;;;;;;;;;;;;5071035;28;20332;-67
2023/11/01 09:23:18;;;;;;;;;;;;;;;;;;5075403;28;19912;-67
2023/11/01 09:25:44;;;;;;;;;;;;;;;;;;5071729;28;19920;-67
2023/11/01 09:28:10;;;;;;;;;;;;;;;;;;5073527;28;19951;-67
2023/11/01 09:30:36;;;;;;;;;;;;;;;;;;5070132;28;19956;-67
2023/11/01 09:33:02;;;;;;;;;;;;;;;;;;5068659;28;19921;-67
2023/11/01 09:35:29;;;;;;;;;;;;;;;;;;5071725;28;19954;-67
2023/11/01 09:37:55;;;;;;;;;;;;;;;;;;5075322;28;19912;-67
2023/11/01 09:40:20;;;;;;;;;;;;;;;;;;5070946;28;19967;-67
2023/11/01 09:42:47;;;;;;;;;;;;;;;;;;5075557;28;19920;-67
2023/11/01 09:45:13;;;;;;;;;;;;;;;;;;5064623;28;19921;-67
2023/11/01 09:47:39;;;;;;;;;;;;;;;;;;5068848;28;19955;-67
2023/11/01 09:50:05;;;;;;;;;;;;;;;;;;5071352;28;19925;-67
2023/11/01 09:52:31;;;;;;;;;;;;;;;;;;5073047;28;20380;-67
2023/11/01 09:54:57;;;;;;;;;;;;;;;;;;5070484;28;19963;-66
2023/11/01 09:57:23;;;;;;;;;;;;;;;;;;5073314;28;19952;-67
2023/11/01 09:59:49;;;;;;;;;;;;;;;;;;5075158;28;19963;-66
2023/11/01 10:02:15;;;;;;;;;;;;;;;;;;5072427;28;19988;-66
2023/11/01 10:04:40;;;;;;;;;;;;;;;;;;5072467;28;19925;-66
2023/11/01 10:07:06;;;;;;;;;;;;;;;;;;5077009;28;19919;-66
2023/11/01 10:09:32;;;;;;;;;;;;;;;;;;5076077;28;20619;-66
2023/11/01 10:11:58;;;;;;;;;;;;;;;;;;5064843;28;20394;-66
2023/11/01 10:14:24;;;;;;;;;;;;;;;;;;5074690;28;20013;-64
2023/11/01 10:16:50;;;;;;;;;;;;;;;;;;5071744;28;19913;-64
2023/11/01 10:19:16;;;;;;;;;;;;;;;;;;5071043;28;20329;-64
2023/11/01 10:21:42;;;;;;;;;;;;;;;;;;5074225;28;19923;-64
2023/11/01 10:24:08;;;;;;;;;;;;;;;;;;5076856;28;20303;-65
2023/11/01 10:26:35;;;;;;;;;;;;;;;;;;5075180;28;20057;-64
2023/11/01 10:29:01;;;;;;;;;;;;;;;;;;5076245;28;19924;-64
2023/11/01 10:31:26;;;;;;;;;;;;;;;;;;5070085;28;19951;-64
2023/11/01 10:33:52;;;;;;;;;;;;;;;;;;5069983;28;19921;-64
2023/11/01 10:36:19;;;;;;;;;;;;;;;;;;5071452;28;19920;-64
2023/11/01 10:38:45;;;;;;;;;;;;;;;;;;5073707;28;19917;-64
2023/11/01 10:41:11;;;;;;;;;;;;;;;;;;5076456;28;19978;-64
2023/11/01 10:43:37;;;;;;;;;;;;;;;;;;5071837;28;19975;-62
2023/11/01 10:46:03;;;;;;;;;;;;;;;;;;5067631;28;19912;-64
2023/11/01 10:48:29;;;;;;;;;;;;;;;;;;5072647;28;19962;-63
2023/11/01 10:50:55;;;;;;;;;;;;;;;;;;5070275;28;19973;-64
2023/11/01 10:53:24;;;;;;;;;;;;;;;;;;5071716;28;20033;-64
2023/11/01 10:55:53;;;;;;;;;;;;;;;;;;5064596;28;19955;-64
2023/11/01 10:58:20;;;;;;;;;;;;;;;;;;5066706;28;20364;-64
2023/11/01 11:00:46;;;;;;;;;;;;;;;;;;5071003;28;19919;-65
2023/11/01 11:03:12;;;;;;;;;;;;;;;;;;5054834;28;19917;-64
2023/11/01 11:05:38;;;;;;;;;;;;;;;;;;5070415;28;20018;-64
2023/11/01 11:08:04;;;;;;;;;;;;;;;;;;5066543;28;19916;-64
2023/11/01 11:10:32;;;;;;;;;;;;;;;;;;5053149;28;20313;-65
2023/11/01 11:12:58;;;;;;;;;;;;;;;;;;5066094;28;19916;-64
2023/11/01 11:15:23;;;;;;;;;;;;;;;;;;5064975;28;19919;-64
2023/11/01 11:17:49;;;;;;;;;;;;;;;;;;5070966;28;19912;-64
2023/11/01 11:20:16;;;;;;;;;;;;;;;;;;5070968;28;19924;-64
2023/11/01 11:22:42;;;;;;;;;;;;;;;;;;5068084;28;19913;-62
2023/11/01 11:25:08;;;;;;;;;;;;;;;;;;5071066;28;19924;-63
2023/11/01 11:27:34;;;;;;;;;;;;;;;;;;5070507;28;20015;-63
2023/11/01 11:30:00;;;;;;;;;;;;;;;;;;5068952;28;19923;-63
2023/11/01 11:32:26;;;;;;;;;;;;;;;;;;5065855;28;20003;-62
2023/11/01 11:34:52;;;;;;;;;;;;;;;;;;5070905;28;19920;-62
2023/11/01 11:37:19;;;;;;;;;;;;;;;;;;5071225;28;20031;-62
2023/11/01 11:39:45;;;;;;;;;;;;;;;;;;5066393;28;19912;-63
2023/11/01 11:42:11;;;;;;;;;;;;;;;;;;5067580;28;20419;-62
2023/11/01 11:44:37;;;;;;;;;;;;;;;;;;5066483;28;19920;-63
2023/11/01 11:47:05;;;;;;;;;;;;;;;;;;5070949;28;20422;-63
2023/11/01 11:49:32;;;;;;;;;;;;;;;;;;5068572;28;20326;-63
2023/11/01 11:51:58;;;;;;;;;;;;;;;;;;5071322;28;19927;-65
2023/11/01 11:54:24;;;;;;;;;;;;;;;;;;5070133;28;19947;-62
2023/11/01 11:56:50;;;;;;;;;;;;;;;;;;5072786;28;19943;-62
2023/11/01 11:59:16;;;;;;;;;;;;;;;;;;5068459;28;20005;-62
2023/11/01 12:01:42;;;;;;;;;;;;;;;;;;5074617;28;19992;-63
2023/11/01 12:04:08;;;;;;;;;;;;;;;;;;5082697;28;20325;-62
2023/11/01 12:06:34;;;;;;;;;;;;;;;;;;5069336;28;19948;-62
2023/11/01 12:09:00;;;;;;;;;;;;;;;;;;5069888;28;20304;-63
2023/11/01 12:11:26;;;;;;;;;;;;;;;;;;5069946;28;19959;-63
2023/11/01 12:13:52;;;;;;;;;;;;;;;;;;5073842;28;19987;-62
2023/11/01 12:16:17;;;;;;;;;;;;;;;;;;5071894;28;19934;-63
2023/11/01 12:18:43;;;;;;;;;;;;;;;;;;5078415;28;19959;-62
2023/11/01 12:21:10;;;;;;;;;;;;;;;;;;5071604;28;19928;-63
2023/11/01 12:23:36;;;;;;;;;;;;;;;;;;5072472;28;19913;-63
2023/11/01 12:26:02;;;;;;;;;;;;;;;;;;5072547;28;19974;-66
2023/11/01 12:28:29;;;;;;;;;;;;;;;;;;5072611;28;19967;-63
2023/11/01 12:30:55;;;;;;;;;;;;;;;;;;5074433;28;19924;-63
2023/11/01 12:33:21;;;;;;;;;;;;;;;;;;5085780;28;19943;-63
2023/11/01 12:35:46;;;;;;;;;;;;;;;;;;5081395;28;20283;-62
2023/11/01 12:38:12;;;;;;;;;;;;;;;;;;5081121;28;19917;-63
2023/11/01 12:40:38;;;;;;;;;;;;;;;;;;5062671;28;19917;-63
2023/11/01 12:43:04;;;;;;;;;;;;;;;;;;5080706;28;19963;-62
2023/11/01 12:45:32;;;;;;;;;;;;;;;;;;5086503;28;20346;-62
2023/11/01 12:47:58;;;;;;;;;;;;;;;;;;5077287;28;19970;-64
2023/11/01 12:50:24;;;;;;;;;;;;;;;;;;5082350;28;19963;-62
2023/11/01 12:52:50;;;;;;;;;;;;;;;;;;5089536;28;20324;-62
2023/11/01 12:55:16;;;;;;;;;;;;;;;;;;5079801;28;20057;-62
2023/11/01 12:57:42;;;;;;;;;;;;;;;;;;5071220;28;19912;-62
2023/11/01 13:00:08;;;;;;;;;;;;;;;;;;5081205;28;20387;-63
2023/11/01 13:02:34;;;;;;;;;;;;;;;;;;5075478;28;19921;-63
2023/11/01 13:05:00;;;;;;;;;;;;;;;;;;5073433;28;19974;-63
2023/11/01 13:07:26;;;;;;;;;;;;;;;;;;5070401;28;20578;-62
2023/11/01 13:09:52;;;;;;;;;;;;;;;;;;5082250;28;19922;-65
2023/11/01 13:12:18;;;;;;;;;;;;;;;;;;5070950;28;19956;-62
2023/11/01 13:14:43;;;;;;;;;;;;;;;;;;5076364;28;19955;-62
2023/11/01 13:17:09;;;;;;;;;;;;;;;;;;5074039;28;20388;-62
2023/11/01 13:19:35;;;;;;;;;;;;;;;;;;5073925;28;20354;-62
2023/11/01 13:22:01;;;;;;;;;;;;;;;;;;5076562;28;19997;-64
2023/11/01 13:24:27;;;;;;;;;;;;;;;;;;5074188;28;20320;-62
2023/11/01 13:26:53;;;;;;;;;;;;;;;;;;5064479;28;20011;-62
2023/11/01 13:29:19;;;;;;;;;;;;;;;;;;5069120;28;19917;-63
2023/11/01 13:31:45;;;;;;;;;;;;;;;;;;5071712;28;19912;-62
2023/11/01 13:34:11;;;;;;;;;;;;;;;;;;5065196;28;19958;-62
2023/11/01 13:36:37;;;;;;;;;;;;;;;;;;5067710;28;19995;-64
2023/11/01 13:39:03;;;;;;;;;;;;;;;;;;5076553;28;19942;-62
2023/11/01 13:41:28;;;;;;;;;;;;;;;;;;5069678;28;19912;-63
2023/11/01 13:43:54;;;;;;;;;;;;;;;;;;5070509;28;19955;-68
2023/11/01 13:46:20;;;;;;;;;;;;;;;;;;5071033;28;19985;-67
2023/11/01 13:48:46;;;;;;;;;;;;;;;;;;5073067;28;19960;-68
2023/11/01 13:51:12;;;;;;;;;;;;;;;;;;5069522;28;20378;-67
2023/11/01 13:53:38;;;;;;;;;;;;;;;;;;5070007;28;19958;-68
2023/11/01 13:56:04;;;;;;;;;;;;;;;;;;5066131;28;19919;-68
2023/11/01 13:58:31;;;;;;;;;;;;;;;;;;5071927;28;19913;-68
2023/11/01 14:00:56;;;;;;;;;;;;;;;;;;5070737;28;19916;-67
2023/11/01 14:03:22;;;;;;;;;;;;;;;;;;5068003;28;19967;-68
2023/11/01 14:05:48;;;;;;;;;;;;;;;;;;5073695;28;19955;-68
2023/11/01 14:08:14;;;;;;;;;;;;;;;;;;5068666;28;19919;-68
2023/11/01 14:10:42;;;;;;;;;;;;;;;;;;5068913;28;20354;-68
2023/11/01 14:13:08;;;;;;;;;;;;;;;;;;5077551;28;19912;-68
2023/11/01 14:15:34;;;;;;;;;;;;;;;;;;5064057;28;19967;-68
2023/11/01 14:18:06;;;;;;;;;;;;;;;;;;5065107;28;19995;-67
2023/11/01 14:20:35;;;;;;;;;;;;;;;;;;5069952;28;19977;-68
2023/11/01 14:23:01;;;;;;;;;;;;;;;;;;5069983;28;20054;-67
2023/11/01 14:25:26;;;;;;;;;;;;;;;;;;5071734;28;20011;-68
2023/11/01 14:27:53;;;;;;;;;;;;;;;;;;5070173;28;20291;-68
2023/11/01 14:30:19;;;;;;;;;;;;;;;;;;5072619;28;21581;-68
2023/11/01 14:32:45;;;;;;;;;;;;;;;;;;5069841;28;19981;-68
2023/11/01 14:35:11;;;;;;;;;;;;;;;;;;5076809;28;19916;-69
2023/11/01 14:37:36;;;;;;;;;;;;;;;;;;5081181;28;20356;-69
2023/11/01 14:40:02;;;;;;;;;;;;;;;;;;5070033;28;20344;-68
2023/11/01 14:42:28;;;;;;;;;;;;;;;;;;5065232;28;19912;-68
2023/11/01 14:44:54;;;;;;;;;;;;;;;;;;5072846;28;20368;-69
2023/11/01 14:47:20;;;;;;;;;;;;;;;;;;5070104;28;19946;-68
2023/11/01 14:49:46;;;;;;;;;;;;;;;;;;5072511;28;20018;-68
2023/11/01 14:52:12;;;;;;;;;;;;;;;;;;5069137;28;20364;-68
2023/11/01 14:54:38;;;;;;;;;;;;;;;;;;5071835;28;20345;-62
2023/11/01 14:57:04;;;;;;;;;;;;;;;;;;5078066;28;19955;-63
2023/11/01 14:59:30;;;;;;;;;;;;;;;;;;5069281;28;20351;-62
2023/11/01 15:01:56;;;;;;;;;;;;;;;;;;5074045;28;19947;-62
2023/11/01 15:04:22;;;;;;;;;;;;;;;;;;5064922;28;20004;-62
2023/11/01 15:06:48;;;;;;;;;;;;;;;;;;5072773;28;20104;-62
2023/11/01 15:09:19;;;;;;;;;;;;;;;;;;5071899;28;19962;-63
2023/11/01 15:11:48;;;;;;;;;;;;;;;;;;5074113;28;19912;-64
2023/11/01 15:14:14;;;;;;;;;;;;;;;;;;5066307;28;19913;-63
2023/11/01 15:16:40;;;;;;;;;;;;;;;;;;5061145;28;20023;-62
2023/11/01 15:19:06;;;;;;;;;;;;;;;;;;5071951;28;20048;-62
2023/11/01 15:21:32;;;;;;;;;;;;;;;;;;5063327;28;19999;-62
2023/11/01 15:23:58;;;;;;;;;;;;;;;;;;5067228;28;19919;-62
2023/11/01 15:26:25;;;;;;;;;;;;;;;;;;5070827;28;19925;-63
2023/11/01 15:28:52;;;;;;;;;;;;;;;;;;5077932;28;19925;-63
2023/11/01 15:31:18;;;;;;;;;;;;;;;;;;5067136;28;19920;-62
2023/11/01 15:33:44;;;;;;;;;;;;;;;;;;5074330;28;20257;-63
2023/11/01 15:36:10;;;;;;;;;;;;;;;;;;5071450;28;19912;-66
2023/11/01 15:38:36;;;;;;;;;;;;;;;;;;5073239;28;20448;-63
2023/11/01 15:41:02;;;;;;;;;;;;;;;;;;5073813;28;20419;-62
2023/11/01 15:43:28;;;;;;;;;;;;;;;;;;5069834;28;19912;-62
2023/11/01 15:45:54;;;;;;;;;;;;;;;;;;5075456;28;19999;-63
2023/11/01 15:48:21;;;;;;;;;;;;;;;;;;5082761;28;19915;-62
2023/11/01 15:50:47;;;;;;;;;;;;;;;;;;5072205;28;20113;-62
2023/11/01 15:53:13;;;;;;;;;;;;;;;;;;5063545;28;20052;-64
2023/11/01 15:55:39;;;;;;;;;;;;;;;;;;5068324;28;20286;-62
2023/11/01 15:58:05;;;;;;;;;;;;;;;;;;5065184;28;19959;-62
2023/11/01 16:00:31;;;;;;;;;;;;;;;;;;5066217;28;19958;-62
2023/11/01 16:02:57;;;;;;;;;;;;;;;;;;5065272;28;20360;-63
2023/11/01 16:05:23;;;;;;;;;;;;;;;;;;5061304;28;19921;-62
2023/11/01 16:07:49;;;;;;;;;;;;;;;;;;5071788;28;19920;-63
2023/11/01 16:10:15;;;;;;;;;;;;;;;;;;5074374;28;19960;-62
2023/11/01 16:12:41;;;;;;;;;;;;;;;;;;5070190;28;19935;-67
2023/11/01 16:15:07;;;;;;;;;;;;;;;;;;5065736;28;19927;-67
2023/11/01 16:17:32;;;;;;;;;;;;;;;;;;5075480;28;19995;-67
2023/11/01 16:19:58;;;;;;;;;;;;;;;;;;5076116;28;19956;-67
2023/11/01 16:22:25;;;;;;;;;;;;;;;;;;5065733;28;20283;-65
2023/11/01 16:24:51;;;;;;;;;;;;;;;;;;5068022;28;19931;-64
2023/11/01 16:27:21;;;;;;;;;;;;;;;;;;5067896;28;20011;-64
2023/11/01 16:29:47;;;;;;;;;;;;;;;;;;5068807;28;19916;-64
2023/11/01 16:32:13;;;;;;;;;;;;;;;;;;5077418;28;19944;-64
2023/11/01 16:34:41;;;;;;;;;;;;;;;;;;5073372;28;19958;-64
2023/11/01 16:37:07;;;;;;;;;;;;;;;;;;5069157;28;19924;-63